Time;durP1;ratioP1;P1;durP2;ratioP2;P2;SDS_P1;SDS_P2;PMS_P1;PMS_P2;Temp;Humidity;BMP_temperature;BMP_pressure;BME280_temperature;BME280_humidity;BME280_pressure;Samples;Min_cycle;Max_cycle;Signal;HPM_P1;HPM_P2
2022/07/22 00:02:09;;;;;;;12.13;9.77;;;23.50;99.90;;;;;;5047984;28;20456;-68
2022/07/22 00:04:35;;;;;;;12.23;10.00;;;23.50;99.90;;;;;;5047519;28;20221;-68
2022/07/22 00:07:01;;;;;;;9.50;8.50;;;23.60;99.90;;;;;;5047799;28;20248;-68
2022/07/22 00:09:27;;;;;;;11.90;8.73;;;23.50;99.90;;;;;;5046391;28;20177;-68
2022/07/22 00:11:53;;;;;;;13.10;9.47;;;23.60;99.90;;;;;;5048219;28;20167;-68
2022/07/22 00:14:19;;;;;;;10.63;9.63;;;23.60;99.90;;;;;;5047223;28;20512;-68
2022/07/22 00:16:44;;;;;;;15.93;9.83;;;23.60;99.90;;;;;;5048148;28;20250;-68
2022/07/22 00:19:10;;;;;;;9.90;9.10;;;23.60;99.90;;;;;;5046234;28;20213;-67
2022/07/22 00:21:36;;;;;;;10.43;9.33;;;23.60;99.90;;;;;;5033436;28;20164;-68
2022/07/22 00:24:02;;;;;;;15.23;10.80;;;23.50;99.90;;;;;;5026973;28;20222;-67
2022/07/22 00:26:28;;;;;;;16.70;11.87;;;23.50;99.90;;;;;;5040729;28;20279;-68
2022/07/22 00:28:53;;;;;;;12.93;9.87;;;23.50;99.90;;;;;;5046226;28;20722;-68
2022/07/22 00:31:19;;;;;;;16.87;10.67;;;23.50;99.90;;;;;;5043994;28;20797;-68
2022/07/22 00:33:45;;;;;;;11.90;10.03;;;23.50;99.90;;;;;;5027170;28;20698;-66
2022/07/22 00:36:11;;;;;;;11.80;9.57;;;23.50;99.90;;;;;;5028237;28;20624;-65
2022/07/22 00:38:37;;;;;;;9.80;9.00;;;23.50;99.90;;;;;;5026336;28;20214;-66
2022/07/22 00:41:03;;;;;;;11.57;9.90;;;23.30;99.90;;;;;;5027916;28;20168;-66
2022/07/22 00:43:58;;;;;;;12.67;10.27;;;23.20;99.90;;;;;;5027266;28;20748;-67
2022/07/22 00:46:25;;;;;;;13.60;10.10;;;23.30;99.90;;;;;;5067916;28;20228;-66
2022/07/22 00:48:51;;;;;;;11.00;10.10;;;23.20;99.90;;;;;;5066095;28;20458;-67
2022/07/22 00:51:19;;;;;;;11.10;10.00;;;23.10;99.90;;;;;;5047450;28;20417;-66
2022/07/22 00:53:46;;;;;;;9.80;9.00;;;23.10;99.90;;;;;;5032358;28;20194;-68
2022/07/22 00:56:12;;;;;;;11.37;10.37;;;23.10;99.90;;;;;;5051702;28;20405;-68
2022/07/22 00:58:38;;;;;;;10.47;9.57;;;23.00;99.90;;;;;;5049724;28;20992;-68
2022/07/22 01:01:04;;;;;;;10.83;9.90;;;23.10;99.90;;;;;;5051581;28;20405;-68
2022/07/22 01:03:30;;;;;;;10.50;9.43;;;23.10;99.90;;;;;;5050895;28;20213;-67
2022/07/22 01:05:55;;;;;;;18.20;10.17;;;23.10;99.90;;;;;;5032789;28;20724;-68
2022/07/22 01:08:21;;;;;;;17.90;10.30;;;23.00;99.90;;;;;;5050827;28;20246;-68
2022/07/22 01:10:48;;;;;;;10.80;9.80;;;23.10;99.90;;;;;;5050004;28;20163;-68
2022/07/22 01:13:14;;;;;;;9.97;9.07;;;23.10;99.90;;;;;;5050526;28;20429;-66
2022/07/22 01:15:40;;;;;;;9.70;8.80;;;22.90;99.90;;;;;;5050967;28;20397;-68
2022/07/22 01:18:05;;;;;;;9.63;8.83;;;22.90;99.90;;;;;;5051949;28;20191;-65
2022/07/22 01:20:31;;;;;;;11.30;10.20;;;22.80;99.90;;;;;;5052457;28;20186;-68
2022/07/22 01:22:57;;;;;;;8.63;8.03;;;22.80;99.90;;;;;;5052790;28;20742;-68
2022/07/22 01:25:23;;;;;;;10.80;9.73;;;22.80;99.90;;;;;;5052288;28;20170;-67
2022/07/22 01:27:49;;;;;;;11.10;9.87;;;22.70;99.90;;;;;;5052614;28;20193;-67
2022/07/22 01:30:14;;;;;;;14.87;10.43;;;22.70;99.90;;;;;;5051725;28;21034;-68
2022/07/22 01:32:40;;;;;;;9.97;9.10;;;22.70;99.90;;;;;;5037157;28;20211;-67
2022/07/22 01:35:06;;;;;;;12.00;10.00;;;22.60;99.90;;;;;;5032110;28;20163;-68
2022/07/22 01:37:33;;;;;;;15.50;10.50;;;22.60;99.90;;;;;;5031648;28;20188;-67
2022/07/22 01:39:59;;;;;;;33.47;13.40;;;22.60;99.90;;;;;;5012809;28;20425;-68
2022/07/22 01:42:25;;;;;;;26.80;10.60;;;22.60;99.90;;;;;;5031903;28;20442;-68
2022/07/22 01:44:51;;;;;;;18.07;9.73;;;22.70;99.90;;;;;;5054155;28;20170;-68
2022/07/22 01:47:17;;;;;;;10.23;8.77;;;22.70;99.90;;;;;;5071856;28;20512;-68
2022/07/22 01:49:43;;;;;;;10.00;9.10;;;22.70;99.90;;;;;;5070906;28;20483;-68
2022/07/22 01:52:09;;;;;;;10.93;9.93;;;22.70;99.90;;;;;;5044610;28;20313;-68
2022/07/22 01:54:35;;;;;;;11.83;9.50;;;22.60;99.90;;;;;;5050875;28;20520;-67
2022/07/22 01:57:02;;;;;;;11.03;9.20;;;22.60;99.90;;;;;;5052002;28;20274;-67
2022/07/22 01:59:28;;;;;;;12.67;8.93;;;22.70;99.90;;;;;;5050912;28;20468;-67
2022/07/22 02:01:54;;;;;;;11.97;10.83;;;22.70;99.90;;;;;;5051621;28;20898;-67
2022/07/22 02:04:19;;;;;;;25.13;11.53;;;22.70;99.90;;;;;;5050311;28;20742;-68
2022/07/22 02:06:45;;;;;;;29.43;10.90;;;22.60;99.90;;;;;;5051453;28;20480;-67
2022/07/22 02:09:11;;;;;;;8.90;8.00;;;22.60;99.90;;;;;;5049852;28;20293;-68
2022/07/22 02:11:36;;;;;;;12.20;9.20;;;22.60;99.90;;;;;;5051345;28;20648;-68
2022/07/22 02:14:02;;;;;;;13.30;9.50;;;22.60;99.90;;;;;;5051076;28;20194;-67
2022/07/22 02:16:29;;;;;;;11.30;10.10;;;22.50;99.90;;;;;;5051828;28;20190;-67
2022/07/22 02:18:54;;;;;;;9.73;8.83;;;22.40;99.90;;;;;;5049974;28;20203;-67
2022/07/22 02:21:20;;;;;;;13.07;9.80;;;22.30;99.90;;;;;;5051907;28;20409;-67
2022/07/22 02:23:47;;;;;;;10.57;9.43;;;22.30;99.90;;;;;;5050491;28;20199;-67
2022/07/22 02:26:12;;;;;;;10.23;9.30;;;22.30;99.90;;;;;;5051065;28;20516;-67
2022/07/22 02:28:38;;;;;;;12.03;9.70;;;22.40;99.90;;;;;;5049810;28;20402;-68
2022/07/22 02:31:04;;;;;;;12.93;9.47;;;22.40;99.90;;;;;;5049740;28;20159;-67
2022/07/22 02:33:30;;;;;;;12.00;10.50;;;22.50;99.90;;;;;;5031284;28;20643;-68
2022/07/22 02:35:56;;;;;;;10.30;9.30;;;22.50;99.90;;;;;;5031079;28;20202;-67
2022/07/22 02:38:21;;;;;;;14.33;11.57;;;22.50;99.90;;;;;;5030287;28;20198;-67
2022/07/22 02:40:47;;;;;;;12.47;10.20;;;22.50;99.90;;;;;;5031044;28;20406;-67
2022/07/22 02:43:13;;;;;;;13.80;10.70;;;22.50;99.90;;;;;;5030813;28;20187;-68
2022/07/22 02:45:39;;;;;;;15.93;11.90;;;22.40;99.90;;;;;;5067320;28;20654;-67
2022/07/22 02:48:05;;;;;;;19.67;11.60;;;22.50;99.90;;;;;;5070246;28;20277;-68
2022/07/22 02:50:32;;;;;;;22.90;11.37;;;22.50;99.90;;;;;;5059582;28;20168;-66
2022/07/22 02:52:58;;;;;;;11.83;10.37;;;22.50;99.90;;;;;;5047638;28;21027;-68
2022/07/22 02:55:24;;;;;;;15.17;10.37;;;22.50;99.90;;;;;;5050346;28;20409;-67
2022/07/22 02:57:50;;;;;;;15.07;9.57;;;22.50;99.90;;;;;;5050233;28;20452;-67
2022/07/22 03:00:16;;;;;;;20.30;10.93;;;22.40;99.90;;;;;;5049880;28;20273;-67
2022/07/22 03:02:42;;;;;;;37.17;12.27;;;22.30;99.90;;;;;;5050685;28;20237;-67
2022/07/22 03:05:08;;;;;;;14.90;11.10;;;22.30;99.90;;;;;;5050140;28;20463;-68
2022/07/22 03:07:34;;;;;;;20.20;11.57;;;22.20;99.90;;;;;;5050002;28;20433;-66
2022/07/22 03:10:00;;;;;;;12.53;10.33;;;22.20;99.90;;;;;;5049980;28;20448;-67
2022/07/22 03:12:26;;;;;;;49.30;13.30;;;22.20;99.90;;;;;;5050934;28;20631;-67
2022/07/22 03:14:52;;;;;;;30.97;11.73;;;22.20;99.90;;;;;;5050159;28;20202;-68
2022/07/22 03:17:17;;;;;;;18.10;11.60;;;22.20;99.90;;;;;;5049971;28;20218;-67
2022/07/22 03:19:43;;;;;;;21.97;11.57;;;22.20;99.90;;;;;;5048933;28;20159;-68
2022/07/22 03:22:09;;;;;;;23.13;11.67;;;22.10;99.90;;;;;;5030882;28;20250;-68
2022/07/22 03:24:34;;;;;;;23.33;11.20;;;22.00;99.90;;;;;;5029245;28;20164;-68
2022/07/22 03:27:00;;;;;;;22.10;11.67;;;22.10;99.90;;;;;;5046806;28;20206;-65
2022/07/22 03:29:26;;;;;;;21.83;11.20;;;22.10;99.90;;;;;;5048648;28;20171;-67
2022/07/22 03:31:51;;;;;;;32.47;12.90;;;22.10;99.90;;;;;;5041787;28;20172;-68
2022/07/22 03:34:17;;;;;;;43.53;16.23;;;22.10;99.90;;;;;;5029334;28;20163;-68
2022/07/22 03:36:43;;;;;;;17.93;10.60;;;22.00;99.90;;;;;;5029834;28;20168;-68
2022/07/22 03:39:09;;;;;;;18.43;10.10;;;21.90;99.90;;;;;;5028674;28;20282;-67
2022/07/22 03:41:34;;;;;;;17.90;12.30;;;21.90;99.90;;;;;;5030391;28;20163;-68
2022/07/22 03:44:00;;;;;;;26.07;11.20;;;21.90;99.90;;;;;;5038278;28;20189;-67
2022/07/22 03:46:26;;;;;;;12.87;10.90;;;21.90;99.90;;;;;;5070243;28;20189;-67
2022/07/22 03:48:51;;;;;;;20.47;12.10;;;21.90;99.90;;;;;;5068192;28;20210;-67
2022/07/22 03:51:17;;;;;;;22.33;11.57;;;22.00;99.90;;;;;;5049765;28;20170;-67
2022/07/22 03:53:43;;;;;;;19.93;10.40;;;22.00;99.90;;;;;;5048318;28;20731;-67
2022/07/22 03:56:08;;;;;;;23.87;11.23;;;22.00;99.90;;;;;;5049402;28;20270;-67
2022/07/22 03:58:34;;;;;;;31.53;12.97;;;22.00;99.90;;;;;;5048052;28;20289;-67
2022/07/22 04:01:00;;;;;;;27.40;11.83;;;22.10;99.90;;;;;;5049252;28;20331;-68
2022/07/22 04:03:26;;;;;;;24.70;11.40;;;22.10;99.90;;;;;;5049005;28;20264;-67
2022/07/22 04:05:51;;;;;;;19.73;11.80;;;22.10;99.90;;;;;;5046323;28;20175;-67
2022/07/22 04:08:18;;;;;;;26.20;11.03;;;22.10;99.90;;;;;;5017628;28;20306;-67
2022/07/22 04:10:44;;;;;;;16.40;10.50;;;22.30;99.90;;;;;;5020719;28;20254;-67
2022/07/22 04:13:10;;;;;;;16.43;10.40;;;22.40;99.90;;;;;;5012113;28;20447;-67
2022/07/22 04:15:37;;;;;;;10.50;9.50;;;22.40;99.90;;;;;;5012394;28;20433;-68
2022/07/22 04:18:03;;;;;;;22.03;11.17;;;22.40;99.90;;;;;;5026109;28;20579;-67
2022/07/22 04:20:29;;;;;;;32.13;10.30;;;22.40;99.90;;;;;;5014947;28;20514;-67
2022/07/22 04:22:54;;;;;;;40.30;12.60;;;22.40;99.90;;;;;;5019078;28;20215;-67
2022/07/22 04:25:20;;;;;;;40.07;14.20;;;22.40;99.90;;;;;;5018941;28;20685;-67
2022/07/22 04:27:46;;;;;;;24.97;11.90;;;22.40;99.90;;;;;;5010749;28;20226;-67
2022/07/22 04:30:11;;;;;;;20.77;11.90;;;22.40;99.90;;;;;;5010697;28;20180;-67
2022/07/22 04:32:37;;;;;;;33.33;14.63;;;22.40;99.90;;;;;;5019558;28;20207;-68
2022/07/22 04:35:04;;;;;;;38.83;13.03;;;22.70;99.90;;;;;;5027330;28;20188;-67
2022/07/22 04:37:30;;;;;;;27.70;11.33;;;23.10;99.90;;;;;;5018322;28;20510;-67
2022/07/22 04:39:56;;;;;;;25.03;12.00;;;23.30;99.90;;;;;;5020623;28;20418;-68
2022/07/22 04:42:22;;;;;;;23.53;11.77;;;23.30;99.90;;;;;;5015612;28;20439;-68
2022/07/22 04:44:48;;;;;;;13.47;10.80;;;23.50;99.90;;;;;;5018104;28;20266;-67
2022/07/22 04:47:14;;;;;;;16.33;10.50;;;23.50;99.90;;;;;;5014106;28;20623;-68
2022/07/22 04:49:39;;;;;;;26.20;11.70;;;23.60;99.90;;;;;;5021982;28;20172;-68
2022/07/22 04:52:05;;;;;;;26.53;11.80;;;23.60;99.90;;;;;;5024593;28;20289;-69
2022/07/22 04:54:31;;;;;;;34.93;11.40;;;23.80;99.90;;;;;;5029810;28;20180;-69
2022/07/22 04:56:57;;;;;;;33.00;12.20;;;23.90;99.90;;;;;;5016143;28;20427;-68
2022/07/22 04:59:22;;;;;;;23.63;11.70;;;23.90;99.90;;;;;;5007439;28;20276;-67
2022/07/22 05:01:48;;;;;;;23.00;12.03;;;24.00;99.90;;;;;;5007117;28;20207;-68
2022/07/22 05:04:14;;;;;;;22.73;11.10;;;24.00;99.90;;;;;;5012788;28;20233;-68
2022/07/22 05:06:40;;;;;;;15.83;10.40;;;23.90;99.90;;;;;;5017795;28;20175;-68
2022/07/22 05:09:06;;;;;;;26.03;10.70;;;23.70;99.90;;;;;;5004118;28;20612;-68
2022/07/22 05:11:32;;;;;;;36.83;12.60;;;23.30;99.90;;;;;;5012199;28;20164;-68
2022/07/22 05:13:58;;;;;;;34.03;11.43;;;23.20;99.90;;;;;;5023688;28;20532;-68
2022/07/22 05:16:24;;;;;;;12.90;10.53;;;23.30;99.90;;;;;;5011787;28;20437;-67
2022/07/22 05:18:49;;;;;;;39.80;12.60;;;23.00;99.90;;;;;;5024389;28;20211;-67
2022/07/22 05:21:15;;;;;;;37.77;10.90;;;23.10;99.90;;;;;;5017908;28;20172;-67
2022/07/22 05:23:42;;;;;;;12.43;10.63;;;23.30;99.90;;;;;;5009342;28;20204;-67
2022/07/22 05:26:08;;;;;;;13.07;9.33;;;23.50;99.90;;;;;;5015638;28;20462;-66
2022/07/22 05:28:34;;;;;;;18.00;11.40;;;23.60;99.90;;;;;;5008219;28;20450;-64
2022/07/22 05:30:59;;;;;;;17.73;10.73;;;23.90;99.90;;;;;;5006414;28;20263;-66
2022/07/22 05:33:25;;;;;;;41.53;12.43;;;24.10;99.90;;;;;;5004824;28;20200;-65
2022/07/22 05:35:51;;;;;;;18.03;10.53;;;24.40;99.90;;;;;;5004235;28;20195;-65
2022/07/22 05:38:17;;;;;;;51.30;12.27;;;24.50;99.90;;;;;;5003675;28;20892;-65
2022/07/22 05:40:43;;;;;;;42.70;13.50;;;24.70;99.90;;;;;;5005933;28;20655;-66
2022/07/22 05:43:08;;;;;;;55.77;15.50;;;25.00;99.90;;;;;;5011358;28;20316;-66
2022/07/22 05:45:34;;;;;;;140.47;23.50;;;25.10;99.90;;;;;;5042733;28;20193;-65
2022/07/22 05:48:00;;;;;;;54.67;14.83;;;25.20;99.90;;;;;;5047507;28;20311;-66
2022/07/22 05:50:27;;;;;;;53.50;14.43;;;25.20;99.90;;;;;;5037515;28;20187;-65
2022/07/22 05:52:52;;;;;;;24.60;11.70;;;25.00;99.90;;;;;;5040319;28;20803;-65
2022/07/22 05:55:18;;;;;;;41.63;12.90;;;24.90;99.90;;;;;;5046788;28;20537;-64
2022/07/22 05:57:44;;;;;;;22.00;12.37;;;25.20;99.90;;;;;;5031495;28;20233;-66
2022/07/22 06:00:10;;;;;;;14.60;10.63;;;25.30;99.90;;;;;;5026685;28;20167;-66
2022/07/22 06:02:36;;;;;;;18.17;11.43;;;25.20;99.90;;;;;;5027165;28;20244;-66
2022/07/22 06:05:02;;;;;;;22.40;11.40;;;25.30;99.90;;;;;;5026797;28;20402;-67
2022/07/22 06:07:28;;;;;;;75.67;16.27;;;25.00;99.90;;;;;;5027628;28;20179;-68
2022/07/22 06:09:54;;;;;;;29.70;12.50;;;25.30;99.90;;;;;;5027130;28;20436;-68
2022/07/22 06:12:19;;;;;;;23.37;14.00;;;25.40;99.90;;;;;;5027276;28;20631;-66
2022/07/22 06:14:46;;;;;;;30.60;12.90;;;25.50;99.90;;;;;;5027041;28;20755;-67
2022/07/22 06:17:12;;;;;;;11.70;9.70;;;25.40;99.90;;;;;;5027154;28;20171;-68
2022/07/22 06:19:38;;;;;;;14.43;13.10;;;25.80;99.90;;;;;;5026347;28;20498;-67
2022/07/22 06:22:04;;;;;;;17.30;13.57;;;25.80;99.90;;;;;;5010454;28;20407;-67
2022/07/22 06:24:30;;;;;;;34.07;18.30;;;26.00;99.90;;;;;;5009531;28;20418;-68
2022/07/22 06:26:55;;;;;;;49.50;18.43;;;26.00;99.90;;;;;;4997824;28;20267;-67
2022/07/22 06:29:21;;;;;;;15.40;14.10;;;26.20;99.90;;;;;;5037881;28;20178;-68
2022/07/22 06:31:47;;;;;;;29.93;15.20;;;25.30;99.90;;;;;;5026896;28;20175;-67
2022/07/22 06:34:12;;;;;;;14.93;12.70;;;25.30;99.90;;;;;;5017062;28;20175;-68
2022/07/22 06:36:38;;;;;;;18.00;13.67;;;25.30;99.90;;;;;;5018038;28;20172;-68
2022/07/22 06:39:04;;;;;;;23.50;13.47;;;25.30;99.90;;;;;;5018818;28;20218;-68
2022/07/22 06:41:30;;;;;;;12.80;11.50;;;25.70;99.90;;;;;;5018680;28;20195;-67
2022/07/22 06:43:55;;;;;;;11.97;10.77;;;25.80;99.90;;;;;;5018542;28;20210;-66
2022/07/22 06:46:21;;;;;;;11.70;10.80;;;25.60;99.90;;;;;;5020009;28;20265;-68
2022/07/22 06:48:47;;;;;;;42.40;11.90;;;25.50;99.90;;;;;;5018901;28;20210;-68
2022/07/22 06:51:12;;;;;;;12.37;11.03;;;25.90;99.90;;;;;;5021903;28;20184;-66
2022/07/22 06:53:38;;;;;;;10.33;9.33;;;26.10;99.90;;;;;;5005474;28;20206;-67
2022/07/22 06:56:04;;;;;;;12.73;10.67;;;25.80;99.90;;;;;;5020500;28;20241;-67
2022/07/22 06:58:30;;;;;;;12.40;9.80;;;25.30;99.90;;;;;;5016936;28;20279;-67
2022/07/22 07:00:56;;;;;;;50.47;15.03;;;25.30;99.90;;;;;;5017831;28;20442;-68
2022/07/22 07:03:22;;;;;;;16.80;11.17;;;25.80;99.90;;;;;;5020813;28;20525;-69
2022/07/22 07:05:48;;;;;;;11.47;10.47;;;25.50;99.90;;;;;;5023454;28;20172;-67
2022/07/22 07:08:14;;;;;;;18.07;11.17;;;25.30;99.90;;;;;;5041180;28;20421;-65
2022/07/22 07:10:40;;;;;;;13.10;10.70;;;25.70;99.90;;;;;;5025471;28;20172;-65
2022/07/22 07:13:05;;;;;;;13.03;10.03;;;25.50;99.90;;;;;;5021472;28;20256;-65
2022/07/22 07:15:31;;;;;;;14.23;9.50;;;25.20;99.90;;;;;;5019609;28;20372;-63
2022/07/22 07:17:57;;;;;;;12.80;11.00;;;25.30;99.90;;;;;;5001099;28;20298;-68
2022/07/22 07:20:24;;;;;;;13.37;10.33;;;26.10;99.90;;;;;;5019493;28;20601;-64
2022/07/22 07:22:50;;;;;;;10.40;9.37;;;26.00;99.90;;;;;;5019145;28;20423;-66
2022/07/22 07:25:16;;;;;;;12.20;9.60;;;25.20;99.90;;;;;;5022052;28;20939;-65
2022/07/22 07:27:42;;;;;;;10.47;9.57;;;25.30;99.90;;;;;;5020416;28;20171;-67
2022/07/22 07:30:11;;;;;;;10.40;9.60;;;25.20;99.90;;;;;;5022149;28;20974;-65
2022/07/22 07:32:37;;;;;;;10.17;9.13;;;25.70;99.90;;;;;;5021134;28;20203;-66
2022/07/22 07:35:04;;;;;;;12.90;10.20;;;26.00;99.90;;;;;;5004035;28;20450;-65
2022/07/22 07:37:30;;;;;;;11.27;10.17;;;26.00;99.90;;;;;;5018976;28;20556;-62
2022/07/22 07:39:57;;;;;;;12.40;10.27;;;26.20;99.90;;;;;;5019475;28;20486;-64
2022/07/22 07:42:23;;;;;;;10.13;9.17;;;26.30;99.90;;;;;;5021620;28;20280;-65
2022/07/22 07:44:48;;;;;;;11.33;9.10;;;25.60;99.90;;;;;;5023408;28;20441;-64
2022/07/22 07:47:17;;;;;;;10.30;9.30;;;25.90;99.90;;;;;;5020822;28;20458;-64
2022/07/22 07:49:44;;;;;;;13.30;10.30;;;25.50;99.90;;;;;;5019723;28;20239;-65
2022/07/22 07:52:12;;;;;;;23.90;12.10;;;25.70;99.90;;;;;;5009125;28;20457;-66
2022/07/22 07:54:39;;;;;;;10.40;9.50;;;26.00;99.90;;;;;;5023429;28;20415;-66
2022/07/22 07:57:06;;;;;;;25.97;11.73;;;25.90;99.90;;;;;;5019866;28;20438;-65
2022/07/22 07:59:32;;;;;;;12.33;11.07;;;26.30;99.90;;;;;;5003260;28;20789;-64
2022/07/22 08:01:58;;;;;;;10.13;9.20;;;26.30;99.90;;;;;;5020510;28;20407;-62
2022/07/22 08:04:23;;;;;;;11.20;9.80;;;26.20;99.90;;;;;;5019525;28;20407;-64
2022/07/22 08:06:49;;;;;;;11.20;9.97;;;26.20;99.90;;;;;;5022183;28;20243;-66
2022/07/22 08:09:15;;;;;;;11.80;10.77;;;26.30;99.90;;;;;;5019218;28;20270;-63
2022/07/22 08:11:41;;;;;;;12.07;10.67;;;25.90;99.90;;;;;;5020419;28;20171;-65
2022/07/22 08:14:07;;;;;;;10.40;9.50;;;26.20;99.90;;;;;;5019073;28;20350;-66
2022/07/22 08:16:33;;;;;;;11.80;9.90;;;26.20;99.90;;;;;;5020916;28;20803;-65
2022/07/22 08:18:59;;;;;;;13.73;9.33;;;25.90;99.90;;;;;;5020256;28;20202;-64
2022/07/22 08:21:25;;;;;;;17.57;10.03;;;26.00;99.90;;;;;;5003009;28;20253;-66
2022/07/22 08:23:52;;;;;;;11.47;10.30;;;26.50;99.90;;;;;;5021195;28;20272;-65
2022/07/22 08:26:17;;;;;;;11.20;9.23;;;26.40;99.90;;;;;;5019804;28;20410;-63
2022/07/22 08:28:43;;;;;;;10.50;8.87;;;26.40;99.90;;;;;;5019387;28;20491;-65
2022/07/22 08:31:09;;;;;;;16.13;9.37;;;26.50;99.90;;;;;;5019565;28;20182;-63
2022/07/22 08:33:35;;;;;;;22.07;11.13;;;26.70;99.90;;;;;;5019103;28;20199;-65
2022/07/22 08:36:00;;;;;;;18.20;10.13;;;27.00;99.90;;;;;;5018927;28;20240;-67
2022/07/22 08:38:26;;;;;;;14.43;10.10;;;26.60;99.90;;;;;;5020320;28;20888;-65
2022/07/22 08:40:55;;;;;;;12.67;10.00;;;26.70;99.90;;;;;;5018946;28;20243;-64
2022/07/22 08:43:21;;;;;;;21.23;8.73;;;26.50;99.90;;;;;;5018493;28;20183;-65
2022/07/22 08:45:48;;;;;;;10.70;9.60;;;26.50;99.90;;;;;;5024110;28;20942;-63
2022/07/22 08:48:14;;;;;;;9.17;8.37;;;26.60;99.90;;;;;;5019629;28;20552;-65
2022/07/22 08:50:40;;;;;;;11.30;10.20;;;26.80;99.90;;;;;;5019081;28;21076;-63
2022/07/22 08:53:10;;;;;;;11.90;10.60;;;27.20;99.90;;;;;;5027282;28;20183;-64
2022/07/22 08:55:44;;;;;;;12.30;10.37;;;27.10;99.90;;;;;;5001422;28;20394;-64
2022/07/22 08:58:10;;;;;;;26.50;11.47;;;26.90;99.90;;;;;;5018651;28;20446;-64
2022/07/22 09:00:38;;;;;;;10.77;9.77;;;27.10;99.90;;;;;;5023686;28;20430;-63
2022/07/22 09:03:27;;;;;;;11.27;10.20;;;27.40;99.90;;;;;;5031938;28;20528;-66
2022/07/22 09:05:54;;;;;;;10.37;9.47;;;27.10;99.90;;;;;;5031280;28;20472;-67
2022/07/22 09:08:21;;;;;;;14.43;9.70;;;26.90;99.90;;;;;;5031372;28;20514;-66
2022/07/22 09:10:47;;;;;;;16.83;9.90;;;27.70;99.90;;;;;;5031328;28;20417;-66
2022/07/22 09:13:15;;;;;;;19.53;10.57;;;28.20;99.90;;;;;;5032614;28;20429;-65
2022/07/22 09:15:49;;;;;;;11.00;9.83;;;27.90;99.60;;;;;;5035800;28;20496;-66
2022/07/22 09:18:15;;;;;;;10.93;9.90;;;27.90;99.90;;;;;;5034272;28;20449;-65
2022/07/22 09:20:43;;;;;;;10.53;9.30;;;27.80;98.00;;;;;;5035588;28;20417;-65
2022/07/22 09:23:12;;;;;;;10.90;9.90;;;27.60;96.70;;;;;;5018186;28;20489;-66
2022/07/22 09:25:39;;;;;;;10.47;9.53;;;27.30;95.70;;;;;;5036198;28;20402;-66
2022/07/22 09:28:14;;;;;;;10.97;9.97;;;27.30;95.90;;;;;;5036237;28;20417;-65
2022/07/22 09:30:44;;;;;;;10.03;9.23;;;27.60;95.90;;;;;;5035466;28;20394;-68
2022/07/22 09:33:11;;;;;;;15.63;9.40;;;27.50;95.90;;;;;;5016433;28;20863;-66
2022/07/22 09:35:39;;;;;;;10.70;9.60;;;27.90;96.30;;;;;;5015150;28;21227;-66
2022/07/22 09:38:06;;;;;;;12.20;9.53;;;27.70;95.50;;;;;;5015309;28;20469;-66
2022/07/22 09:40:41;;;;;;;13.57;11.27;;;27.90;96.00;;;;;;4997471;28;20836;-66
2022/07/22 09:43:14;;;;;;;9.30;8.50;;;28.00;94.90;;;;;;5014619;28;20922;-65
2022/07/22 09:45:49;;;;;;;11.53;10.40;;;27.90;94.00;;;;;;5051468;28;20393;-66
2022/07/22 09:48:18;;;;;;;19.27;10.33;;;27.90;93.60;;;;;;5054377;28;20458;-65
2022/07/22 09:50:44;;;;;;;10.73;9.70;;;28.30;94.60;;;;;;5054736;28;20408;-65
2022/07/22 09:53:10;;;;;;;12.30;10.70;;;28.80;93.90;;;;;;5054213;28;20425;-66
2022/07/22 09:55:38;;;;;;;11.40;10.00;;;28.50;91.90;;;;;;5054628;28;20400;-65
2022/07/22 09:58:07;;;;;;;11.00;10.10;;;28.20;99.90;;;;;;5036216;28;20237;-65
2022/07/22 10:00:43;;;;;;;10.80;8.87;;;28.20;91.10;;;;;;5017721;28;20401;-66
2022/07/22 10:03:17;;;;;;;11.03;9.93;;;28.80;91.60;;;;;;5035862;28;20449;-66
2022/07/22 10:05:43;;;;;;;11.13;9.37;;;29.30;91.00;;;;;;5034969;28;20398;-66
2022/07/22 10:08:09;;;;;;;14.97;10.53;;;29.60;90.40;;;;;;5034531;28;20898;-66
2022/07/22 10:10:37;;;;;;;10.40;9.40;;;29.20;87.00;;;;;;5034883;28;20409;-66
2022/07/22 10:13:06;;;;;;;44.47;13.40;;;28.70;84.20;;;;;;5035372;28;20441;-66
2022/07/22 10:15:33;;;;;;;12.40;9.83;;;28.40;83.30;;;;;;5034966;28;20852;-68
2022/07/22 10:18:03;;;;;;;9.83;9.03;;;28.70;82.50;;;;;;5018817;28;20532;-64
2022/07/22 10:20:30;;;;;;;11.70;10.53;;;28.50;78.50;;;;;;5032294;28;20497;-68
2022/07/22 10:22:58;;;;;;;23.43;10.57;;;28.30;76.90;;;;;;5030893;28;20520;-68
2022/07/22 10:25:27;;;;;;;9.93;9.03;;;28.10;74.40;;;;;;5029941;28;20409;-66
2022/07/22 10:27:55;;;;;;;9.50;8.70;;;28.20;72.90;;;;;;5024938;28;20417;-64
2022/07/22 10:30:24;;;;;;;14.37;10.60;;;28.50;71.70;;;;;;5020941;28;20497;-67
2022/07/22 10:33:13;;;;;;;18.00;9.40;;;28.30;70.10;;;;;;5020765;28;20440;-67
2022/07/22 10:36:00;;;;;;;19.63;9.33;;;28.40;65.70;;;;;;5019988;28;20399;-67
2022/07/22 10:38:27;;;;;;;17.40;8.97;;;28.70;62.80;;;;;;5020094;28;20557;-68
2022/07/22 10:41:00;;;;;;;17.40;8.60;;;29.00;60.50;;;;;;5018699;28;20406;-67
2022/07/22 10:43:27;;;;;;;9.80;8.10;;;29.20;59.10;;;;;;5018725;28;20930;-68
2022/07/22 10:46:02;;;;;;;9.83;8.83;;;29.10;57.70;;;;;;5021121;28;20398;-67
2022/07/22 10:48:37;;;;;;;12.20;8.87;;;28.90;56.50;;;;;;5019768;28;20410;-68
2022/07/22 10:51:21;;;;;;;9.80;8.43;;;28.70;54.50;;;;;;5019128;28;20727;-67
2022/07/22 10:54:02;;;;;;;9.97;8.03;;;28.60;51.80;;;;;;5049553;28;20516;-67
2022/07/22 10:56:35;;;;;;;7.73;6.93;;;28.80;50.20;;;;;;5016084;28;20475;-68
2022/07/22 10:59:09;;;;;;;20.00;8.67;;;28.70;46.00;;;;;;5046902;28;20506;-70
2022/07/22 11:01:36;;;;;;;28.53;9.77;;;28.80;45.40;;;;;;5048980;28;20428;-66
2022/07/22 11:04:15;;;;;;;14.13;8.63;;;29.00;46.30;;;;;;5028818;28;20445;-69
2022/07/22 11:06:42;;;;;;;8.77;7.97;;;29.20;46.70;;;;;;5028797;28;20739;-68
2022/07/22 11:09:11;;;;;;;10.53;7.90;;;29.00;44.90;;;;;;5027950;28;20409;-68
2022/07/22 11:11:52;;;;;;;9.43;8.43;;;28.60;43.10;;;;;;5029426;28;20430;-67
2022/07/22 11:14:38;;;;;;;10.83;8.20;;;28.60;41.90;;;;;;5028600;28;20417;-67
2022/07/22 11:17:13;;;;;;;22.50;9.57;;;28.90;41.40;;;;;;5028810;28;20414;-67
2022/07/22 11:19:39;;;;;;;12.00;8.90;;;29.30;41.80;;;;;;5028251;28;20410;-67
2022/07/22 11:22:08;;;;;;;9.10;8.40;;;29.50;41.60;;;;;;5028951;28;20410;-68
2022/07/22 11:24:35;;;;;;;10.73;9.23;;;29.40;40.30;;;;;;5028568;28;20417;-68
2022/07/22 11:27:02;;;;;;;10.37;7.97;;;29.20;38.60;;;;;;5028649;28;20421;-68
2022/07/22 11:29:41;;;;;;;10.47;8.37;;;28.80;37.60;;;;;;5027022;28;20475;-67
2022/07/22 11:32:12;;;;;;;9.33;8.33;;;28.70;37.00;;;;;;5018562;28;20446;-68
2022/07/22 11:34:45;;;;;;;9.53;8.60;;;28.80;36.80;;;;;;5008571;28;20458;-69
2022/07/22 11:37:15;;;;;;;9.50;8.60;;;29.00;36.40;;;;;;5007653;28;20430;-68
2022/07/22 11:39:41;;;;;;;26.60;9.00;;;29.20;35.70;;;;;;5007873;28;20415;-68
2022/07/22 11:42:07;;;;;;;22.63;9.60;;;29.20;35.10;;;;;;5008716;28;20528;-69
2022/07/22 11:44:35;;;;;;;9.73;8.73;;;29.30;35.10;;;;;;5026158;28;20173;-68
2022/07/22 11:47:02;;;;;;;15.20;8.80;;;29.60;34.10;;;;;;5048427;28;20420;-67
2022/07/22 11:49:33;;;;;;;8.70;7.60;;;29.90;45.00;;;;;;5047332;28;20917;-67
2022/07/22 11:52:00;;;;;;;8.73;7.93;;;29.60;30.20;;;;;;5047959;28;20500;-67
2022/07/22 11:54:26;;;;;;;9.53;8.60;;;29.60;29.60;;;;;;5047326;28;20420;-68
2022/07/22 11:56:52;;;;;;;16.17;9.00;;;29.50;29.00;;;;;;5048472;28;20448;-69
2022/07/22 11:59:18;;;;;;;16.17;9.10;;;29.50;28.40;;;;;;5046601;28;20487;-69
2022/07/22 12:01:45;;;;;;;9.23;8.30;;;29.40;28.20;;;;;;5048234;28;20178;-68
2022/07/22 12:04:15;;;;;;;10.03;8.87;;;29.20;28.10;;;;;;5019587;28;20437;-66
2022/07/22 12:06:43;;;;;;;25.80;9.97;;;29.00;28.20;;;;;;5016403;28;20856;-68
2022/07/22 12:09:20;;;;;;;22.67;9.37;;;29.20;28.40;;;;;;5007178;28;20486;-69
2022/07/22 12:11:49;;;;;;;9.87;8.83;;;29.50;28.80;;;;;;5008887;28;20397;-69
2022/07/22 12:14:17;;;;;;;8.23;7.43;;;29.70;28.00;;;;;;5008123;28;20457;-69
2022/07/22 12:16:52;;;;;;;8.57;7.70;;;29.70;27.80;;;;;;5008497;28;20923;-68
2022/07/22 12:19:18;;;;;;;19.93;10.90;;;29.40;26.80;;;;;;4989041;28;20457;-69
2022/07/22 12:22:01;;;;;;;10.53;9.43;;;29.60;26.90;;;;;;5023673;28;20414;-70
2022/07/22 12:24:56;;;;;;;15.93;9.13;;;29.90;27.00;;;;;;5027350;28;20169;-69
2022/07/22 12:27:22;;;;;;;12.27;8.77;;;29.90;36.80;;;;;;5027420;28;20402;-69
2022/07/22 12:29:49;;;;;;;17.87;8.93;;;29.70;23.80;;;;;;5026514;28;20488;-69
2022/07/22 12:32:20;;;;;;;9.20;8.30;;;29.60;23.40;;;;;;5014105;28;20207;-68
2022/07/22 12:34:54;;;;;;;9.53;8.67;;;29.60;23.40;;;;;;5008029;28;20459;-70